createdAt,value
2022-09-23T00:02:17.346Z,9.50
2022-09-23T00:09:00.053Z,9.40
2022-09-23T00:12:29.077Z,9.30
2022-09-23T00:14:58.696Z,9.20
2022-09-23T00:17:27.299Z,9.30
2022-09-23T00:19:55.699Z,9.20
2022-09-23T00:22:24.075Z,9.20
2022-09-23T00:24:52.240Z,9.10
2022-09-23T00:27:21.104Z,9.10
2022-09-23T00:29:49.693Z,9.00
2022-09-23T00:32:19.327Z,8.90
2022-09-23T00:34:47.978Z,8.90
2022-09-23T00:37:16.671Z,8.80
2022-09-23T00:39:45.853Z,8.80
2022-09-23T00:42:16.801Z,8.80
2022-09-23T00:44:50.128Z,8.70
2022-09-23T00:47:23.340Z,8.70
2022-09-23T00:50:01.891Z,8.60
2022-09-23T00:54:33.049Z,8.60
2022-09-23T00:57:01.209Z,8.50
2022-09-23T00:59:47.639Z,8.50
2022-09-23T01:02:16.873Z,8.60
2022-09-23T01:04:46.553Z,8.60
2022-09-23T01:07:14.911Z,8.60
2022-09-23T01:09:43.154Z,8.60
2022-09-23T01:12:28.029Z,8.60
2022-09-23T01:15:03.783Z,8.40
2022-09-23T01:17:39.530Z,8.40
2022-09-23T01:20:38.591Z,8.40
2022-09-23T01:23:22.657Z,8.40
2022-09-23T01:26:15.065Z,8.60
2022-09-23T01:29:03.480Z,8.70
2022-09-23T01:31:41.513Z,8.70
2022-09-23T01:34:15.267Z,8.60
2022-09-23T01:36:49.347Z,8.60
2022-09-23T01:39:28.110Z,8.50
2022-09-23T01:42:02.698Z,8.50
2022-09-23T01:44:36.932Z,8.50
2022-09-23T01:47:12.371Z,8.60
2022-09-23T01:49:46.577Z,8.70
2022-09-23T01:52:19.418Z,8.70
2022-09-23T01:54:54.313Z,8.80
2022-09-23T01:57:28.850Z,8.90
2022-09-23T02:00:04.540Z,9.10
2022-09-23T02:02:49.707Z,9.20
2022-09-23T02:05:23.475Z,9.10
2022-09-23T02:07:59.439Z,9.10
2022-09-23T02:10:33.672Z,9.10
2022-09-23T02:13:06.510Z,9.00
2022-09-23T02:15:40.354Z,9.10
2022-09-23T02:18:14.218Z,9.40
2022-09-23T02:20:42.875Z,9.40
2022-09-23T02:23:14.275Z,9.30
2022-09-23T02:25:53.842Z,9.30
2022-09-23T02:28:28.435Z,9.20
2022-09-23T02:31:08.716Z,9.20
2022-09-23T02:33:42.837Z,9.20
2022-09-23T02:36:16.349Z,9.20
2022-09-23T02:38:50.861Z,9.20
2022-09-23T02:42:02.057Z,9.10
2022-09-23T02:45:32.023Z,9.20
2022-09-23T02:48:05.343Z,9.30
2022-09-23T02:50:35.731Z,9.30
2022-09-23T02:53:04.773Z,9.30
2022-09-23T02:55:33.294Z,9.20
2022-09-23T02:58:03.109Z,9.10
2022-09-23T03:00:44.417Z,9.10
2022-09-23T03:03:30.916Z,9.10
2022-09-23T03:06:09.070Z,9.10
2022-09-23T03:08:48.657Z,9.10
2022-09-23T03:11:17.682Z,9.30
2022-09-23T03:13:58.590Z,9.20
2022-09-23T03:16:35.798Z,9.20
2022-09-23T03:19:24.100Z,9.20
2022-09-23T03:22:00.877Z,9.30
2022-09-23T03:24:32.179Z,9.20
2022-09-23T03:27:05.568Z,9.30
2022-09-23T03:29:37.372Z,9.20
2022-09-23T03:32:08.357Z,9.10
2022-09-23T03:34:39.152Z,9.10
2022-09-23T03:37:15.865Z,9.10
2022-09-23T03:39:47.915Z,9.10
2022-09-23T03:44:03.716Z,9.20
2022-09-23T03:49:35.122Z,9.30
2022-09-23T03:52:03.940Z,9.40
2022-09-23T03:54:34.210Z,9.40
2022-09-23T03:57:03.501Z,9.50
2022-09-23T03:59:32.246Z,9.60
2022-09-23T04:02:01.934Z,9.70
2022-09-23T04:04:34.012Z,9.70
2022-09-23T04:07:02.651Z,9.60
2022-09-23T04:09:31.294Z,9.60
2022-09-23T04:12:00.894Z,9.60
2022-09-23T04:14:29.179Z,9.70
2022-09-23T04:16:57.487Z,9.70
2022-09-23T04:19:25.891Z,9.70
2022-09-23T04:21:54.182Z,9.70
2022-09-23T04:24:22.934Z,9.70
2022-09-23T04:26:53.440Z,9.70
2022-09-23T04:29:24.025Z,9.70
2022-09-23T04:31:52.946Z,9.70
2022-09-23T04:34:21.837Z,9.80
2022-09-23T04:36:50.685Z,9.70
2022-09-23T04:39:19.484Z,9.60
2022-09-23T04:41:48.055Z,9.60
2022-09-23T04:44:17.187Z,9.60
2022-09-23T04:46:48.216Z,9.60
2022-09-23T04:49:17.329Z,9.60
2022-09-23T04:51:45.604Z,9.70
2022-09-23T04:54:14.998Z,9.80
2022-09-23T04:56:43.598Z,9.90
2022-09-23T04:59:11.788Z,10.00
2022-09-23T05:01:40.248Z,10.10
2022-09-23T05:04:14.348Z,10.10
2022-09-23T05:06:45.415Z,10.10
2022-09-23T05:09:16.560Z,10.20
2022-09-23T05:11:47.378Z,10.20
2022-09-23T05:14:15.615Z,10.10
2022-09-23T05:16:43.926Z,10.00
2022-09-23T05:19:13.650Z,9.90
2022-09-23T05:21:42.164Z,9.80
2022-09-23T05:24:10.973Z,9.80
2022-09-23T05:26:39.390Z,9.80
2022-09-23T05:29:07.887Z,9.80
2022-09-23T05:31:36.826Z,9.70
2022-09-23T05:34:06.830Z,9.70
2022-09-23T05:36:39.186Z,9.70
2022-09-23T05:39:08.920Z,9.70
2022-09-23T05:41:38.318Z,9.80
2022-09-23T05:44:06.631Z,9.90
2022-09-23T05:46:35.298Z,10.00
2022-09-23T05:49:05.679Z,10.10
2022-09-23T05:51:36.338Z,10.10
2022-09-23T05:54:06.003Z,10.20
2022-09-23T05:56:35.634Z,10.30
2022-09-23T05:59:04.865Z,10.30
2022-09-23T06:01:35.247Z,10.40
2022-09-23T06:04:06.111Z,10.50
2022-09-23T06:06:37.714Z,10.60
2022-09-23T06:09:06.728Z,10.60
2022-09-23T06:11:36.292Z,10.60
2022-09-23T06:14:09.957Z,10.70
2022-09-23T06:16:38.243Z,10.70
2022-09-23T06:19:07.164Z,10.70
2022-09-23T06:23:07.678Z,10.70
2022-09-23T06:26:30.719Z,10.70
2022-09-23T06:30:01.631Z,10.70
2022-09-23T06:41:09.230Z,11.10
2022-09-23T06:51:21.044Z,11.70
2022-09-23T06:53:52.937Z,11.90
2022-09-23T06:56:23.770Z,12.10
2022-09-23T06:58:54.714Z,12.30
2022-09-23T07:01:24.329Z,12.40
2022-09-23T07:03:54.238Z,12.50
2022-09-23T07:06:22.457Z,12.70
2022-09-23T07:08:51.338Z,12.80
2022-09-23T07:11:25.536Z,13.00
2022-09-23T07:13:54.123Z,13.10
2022-09-23T07:16:22.461Z,13.30
2022-09-23T07:18:51.003Z,13.40
2022-09-23T07:21:20.128Z,13.50
2022-09-23T07:23:50.197Z,13.60
2022-09-23T07:26:19.445Z,13.70
2022-09-23T07:28:49.164Z,13.90
2022-09-23T07:31:36.616Z,13.90
2022-09-23T07:34:08.074Z,14.00
2022-09-23T07:36:37.492Z,14.10
2022-09-23T07:39:06.405Z,14.10
2022-09-23T07:41:35.874Z,14.10
2022-09-23T07:44:06.534Z,14.20
2022-09-23T07:46:37.202Z,14.30
2022-09-23T07:49:06.952Z,14.30
2022-09-23T07:51:37.213Z,14.40
2022-09-23T07:54:08.689Z,14.50
2022-09-23T07:56:38.420Z,14.60
2022-09-23T07:59:09.391Z,14.70
2022-09-23T08:02:01.440Z,14.90
2022-09-23T08:05:52.454Z,14.90
2022-09-23T08:08:53.177Z,15.00
2022-09-23T08:12:49.387Z,15.20
2022-09-23T08:16:40.590Z,15.20
2022-09-23T08:20:17.792Z,15.30
2022-09-23T08:23:41.060Z,15.50
2022-09-23T08:30:00.808Z,15.70
2022-09-23T08:32:49.565Z,15.60
2022-09-23T08:34:58.636Z,15.80
2022-09-23T08:41:02.144Z,16.00
2022-09-23T08:44:11.070Z,16.40
2022-09-23T08:46:50.778Z,16.60
2022-09-23T08:49:33.448Z,16.70
2022-09-23T08:52:09.255Z,16.80
2022-09-23T08:54:45.167Z,16.90
2022-09-23T08:57:31.380Z,17.10
2022-09-23T09:00:01.756Z,17.10
2022-09-23T09:02:30.877Z,17.10
2022-09-23T09:05:03.644Z,17.10
2022-09-23T09:07:37.108Z,17.10
2022-09-23T09:10:14.335Z,17.10
2022-09-23T09:12:45.266Z,17.20
2022-09-23T09:15:16.829Z,17.30
2022-09-23T09:17:56.638Z,17.40
2022-09-23T09:20:29.699Z,17.50
2022-09-23T09:23:01.107Z,17.60
2022-09-23T09:25:44.687Z,17.70
2022-09-23T09:28:18.997Z,17.70
2022-09-23T09:30:52.166Z,17.70
2022-09-23T09:33:25.715Z,17.70
2022-09-23T09:36:08.984Z,17.70
2022-09-23T09:38:38.867Z,17.80
2022-09-23T09:41:16.078Z,17.90
2022-09-23T09:43:49.181Z,17.90
2022-09-23T09:46:34.165Z,18.00
2022-09-23T09:49:11.028Z,18.10
2022-09-23T09:52:11.213Z,18.20
2022-09-23T09:54:41.417Z,18.30
2022-09-23T09:57:33.685Z,18.40
2022-09-23T10:00:35.593Z,18.40
2022-09-23T10:03:09.837Z,18.50
2022-09-23T10:05:49.819Z,18.80
2022-09-23T10:08:26.032Z,19.10
2022-09-23T10:11:02.658Z,19.30
2022-09-23T10:13:31.360Z,19.30
2022-09-23T10:16:02.796Z,19.40
2022-09-23T10:18:35.896Z,19.40
2022-09-23T10:21:09.540Z,19.40
2022-09-23T10:23:43.465Z,19.30
2022-09-23T10:26:17.397Z,19.60
2022-09-23T10:28:51.338Z,19.90
2022-09-23T10:31:25.881Z,20.00
2022-09-23T10:33:57.325Z,20.10
2022-09-23T10:36:26.022Z,19.90
2022-09-23T10:39:18.683Z,19.80
2022-09-23T10:42:15.096Z,19.70
2022-09-23T10:45:17.597Z,19.70
2022-09-23T10:47:56.760Z,19.80
2022-09-23T10:50:38.637Z,19.80
2022-09-23T10:53:16.222Z,19.80
2022-09-23T10:55:58.257Z,19.80
2022-09-23T10:58:58.931Z,19.70
2022-09-23T11:01:38.813Z,19.60
2022-09-23T11:04:29.584Z,19.50
2022-09-23T11:07:10.489Z,19.40
2022-09-23T11:09:49.401Z,19.30
2022-09-23T11:12:27.347Z,19.30
2022-09-23T11:15:20.873Z,19.30
2022-09-23T11:18:11.764Z,19.30
2022-09-23T11:26:47.084Z,19.30
2022-09-23T11:40:40.965Z,19.10
2022-09-23T11:51:47.201Z,18.90
2022-09-23T11:55:19.920Z,18.70
2022-09-23T11:59:18.979Z,18.70
2022-09-23T12:03:45.057Z,18.60
2022-09-23T12:11:47.725Z,18.90
2022-09-23T12:15:06.001Z,19.00
2022-09-23T12:26:50.558Z,19.90
2022-09-23T12:29:19.060Z,20.00
2022-09-23T12:31:48.306Z,20.10
2022-09-23T12:34:31.112Z,20.10
2022-09-23T12:37:04.165Z,20.10
2022-09-23T12:39:34.531Z,20.10
2022-09-23T12:42:06.348Z,20.10
2022-09-23T12:44:40.685Z,20.30
2022-09-23T12:47:39.959Z,20.50
2022-09-23T12:50:42.777Z,20.70
2022-09-23T12:53:47.676Z,20.80
2022-09-23T12:56:17.291Z,20.80
2022-09-23T12:59:00.885Z,20.80
2022-09-23T13:01:29.617Z,20.90
2022-09-23T13:04:17.032Z,21.00
2022-09-23T13:06:58.722Z,20.90
2022-09-23T13:09:30.179Z,20.80
2022-09-23T13:12:01.470Z,20.70
2022-09-23T13:14:33.765Z,20.60
2022-09-23T13:17:02.086Z,20.60
2022-09-23T13:19:58.476Z,20.70
2022-09-23T13:22:43.623Z,20.70
2022-09-23T13:25:20.772Z,20.60
2022-09-23T13:27:52.991Z,20.50
2022-09-23T13:30:26.636Z,20.40
2022-09-23T13:33:13.840Z,20.50
2022-09-23T13:35:45.631Z,20.50
2022-09-23T13:38:26.100Z,20.30
2022-09-23T13:40:56.061Z,20.10
2022-09-23T13:43:28.211Z,20.00
2022-09-23T13:45:57.841Z,19.80
2022-09-23T13:48:27.237Z,19.50
2022-09-23T13:50:56.359Z,19.30
2022-09-23T13:53:28.124Z,19.10
2022-09-23T13:56:05.951Z,19.00
2022-09-23T13:58:35.965Z,18.80
2022-09-23T14:01:10.108Z,18.70
2022-09-23T14:03:40.484Z,18.40
2022-09-23T14:06:12.990Z,18.30
2022-09-23T14:08:45.479Z,18.20
2022-09-23T14:11:19.523Z,18.20
2022-09-23T14:13:51.044Z,18.00
2022-09-23T14:16:21.329Z,17.90
2022-09-23T14:18:52.624Z,17.80
2022-09-23T14:22:55.330Z,17.70
2022-09-23T14:26:19.503Z,17.60
2022-09-23T14:33:43.758Z,17.40
2022-09-23T14:37:11.696Z,17.20
2022-09-23T14:40:42.496Z,17.20
2022-09-23T14:44:20.063Z,17.10
2022-09-23T14:55:37.112Z,16.90
2022-09-23T14:59:28.670Z,16.90
2022-09-23T15:10:15.471Z,16.80
2022-09-23T15:17:40.975Z,16.70
2022-09-23T15:25:08.397Z,16.50
2022-09-23T15:27:40.870Z,16.40
2022-09-23T15:30:17.149Z,16.40
2022-09-23T15:36:26.577Z,16.30
2022-09-23T15:42:39.792Z,16.20
2022-09-23T15:45:12.159Z,16.10
2022-09-23T15:47:42.756Z,16.10
2022-09-23T15:50:13.830Z,16.00
2022-09-23T15:52:45.017Z,15.90
2022-09-23T15:55:18.225Z,15.90
2022-09-23T15:57:46.503Z,15.80
2022-09-23T16:00:16.047Z,15.80
2022-09-23T16:02:47.256Z,15.70
2022-09-23T16:05:26.609Z,15.60
2022-09-23T16:07:54.881Z,15.50
2022-09-23T16:10:23.965Z,15.50
2022-09-23T16:12:54.583Z,15.40
2022-09-23T16:15:26.203Z,15.40
2022-09-23T16:17:55.847Z,15.30
2022-09-23T16:20:25.878Z,15.30
2022-09-23T16:22:57.277Z,15.20
2022-09-23T16:25:28.335Z,15.20
2022-09-23T16:28:45.871Z,15.20
2022-09-23T16:31:52.757Z,15.20
2022-09-23T16:40:14.579Z,15.10
2022-09-23T16:46:39.207Z,15.00
2022-09-23T16:49:47.822Z,15.00
2022-09-23T16:53:41.022Z,15.00
2022-09-23T16:57:40.127Z,15.10
2022-09-23T17:00:52.670Z,15.10
2022-09-23T17:07:33.413Z,15.10
2022-09-23T17:18:19.656Z,15.10
2022-09-23T17:21:39.691Z,15.10
2022-09-23T17:25:13.044Z,15.10
2022-09-23T17:32:31.534Z,15.00
2022-09-23T17:39:35.308Z,14.90
2022-09-23T17:43:34.277Z,14.90
2022-09-23T17:46:59.456Z,14.80
2022-09-23T17:54:16.339Z,14.70
2022-09-23T17:57:20.870Z,14.60
2022-09-23T18:04:42.334Z,14.40
2022-09-23T18:08:06.203Z,14.40
2022-09-23T18:11:20.762Z,14.30
2022-09-23T18:11:22.887Z,14.50
2022-09-23T18:13:50.322Z,14.20
2022-09-23T18:16:20.578Z,14.20
2022-09-23T18:18:52.929Z,14.20
2022-09-23T18:22:15.323Z,14.10
2022-09-23T18:25:38.809Z,14.10
2022-09-23T18:28:40.411Z,14.10
2022-09-23T18:32:18.274Z,14.00
2022-09-23T18:35:27.542Z,14.00
2022-09-23T18:39:32.307Z,13.90
2022-09-23T18:43:11.044Z,13.90
2022-09-23T18:46:44.545Z,13.90
2022-09-23T18:50:28.755Z,13.80
2022-09-23T18:52:46.029Z,13.80
2022-09-23T18:55:14.625Z,13.80
2022-09-23T18:57:43.083Z,13.80
2022-09-23T19:00:12.364Z,13.80
2022-09-23T19:02:43.071Z,13.70
2022-09-23T19:05:11.434Z,13.70
2022-09-23T19:07:40.529Z,13.70
2022-09-23T19:10:10.041Z,13.70
2022-09-23T19:12:38.374Z,13.70
2022-09-23T19:15:07.380Z,13.70
2022-09-23T19:17:35.598Z,13.60
2022-09-23T19:20:05.580Z,13.60
2022-09-23T19:22:34.583Z,13.60
2022-09-23T19:25:02.876Z,13.50
2022-09-23T19:27:31.191Z,13.50
2022-09-23T19:29:59.879Z,13.50
2022-09-23T19:32:28.152Z,13.50
2022-09-23T19:34:59.726Z,13.50
2022-09-23T19:37:29.364Z,13.50
2022-09-23T19:39:57.959Z,13.50
2022-09-23T19:42:28.227Z,13.50
2022-09-23T19:44:56.433Z,13.50
2022-09-23T19:47:25.056Z,13.50
2022-09-23T19:49:53.827Z,13.50
2022-09-23T19:52:22.078Z,13.50
2022-09-23T19:54:51.778Z,13.50
2022-09-23T19:57:20.190Z,13.50
2022-09-23T20:00:34.653Z,13.60
2022-09-23T20:04:15.166Z,13.50
2022-09-23T20:08:11.475Z,13.50
2022-09-23T20:12:17.724Z,13.50
2022-09-23T20:16:07.739Z,13.60
2022-09-23T20:21:34.016Z,13.60
2022-09-23T20:27:31.388Z,13.60
2022-09-23T20:30:44.015Z,13.50
2022-09-23T20:34:00.020Z,13.60
2022-09-23T20:37:31.621Z,13.60
2022-09-23T20:41:21.977Z,13.60
2022-09-23T20:45:45.248Z,13.60
2022-09-23T20:49:04.385Z,13.60
2022-09-23T20:51:39.335Z,13.60
2022-09-23T20:54:32.876Z,13.60
2022-09-23T20:58:45.145Z,13.60
2022-09-23T21:06:50.597Z,13.50
2022-09-23T21:11:35.530Z,13.50
2022-09-23T21:18:54.075Z,13.50
2022-09-23T21:25:12.123Z,13.50
2022-09-23T21:29:24.812Z,13.40
2022-09-23T21:33:10.196Z,13.40
2022-09-23T21:43:44.651Z,13.30
2022-09-23T21:59:40.186Z,13.20
2022-09-23T22:03:30.056Z,13.20
2022-09-23T22:07:41.805Z,13.30
2022-09-23T22:11:14.913Z,13.30
2022-09-23T22:17:51.906Z,13.20
2022-09-23T22:25:51.528Z,13.20
2022-09-23T22:29:49.978Z,13.30
2022-09-23T22:33:17.131Z,13.30
2022-09-23T22:36:29.055Z,13.30
2022-09-23T22:40:36.295Z,13.30
2022-09-23T22:45:06.636Z,13.30
2022-09-23T22:48:00.800Z,13.30
2022-09-23T22:51:14.676Z,13.30
2022-09-23T22:54:45.662Z,13.30
2022-09-23T23:06:10.522Z,13.20
2022-09-23T23:09:57.691Z,13.30
2022-09-23T23:13:42.866Z,13.30
2022-09-23T23:16:48.536Z,13.30
2022-09-23T23:27:53.457Z,13.30
2022-09-23T23:32:43.757Z,13.30
2022-09-23T23:36:26.305Z,13.30
2022-09-23T23:40:06.881Z,13.30
2022-09-23T23:44:03.951Z,13.30
2022-09-23T23:47:06.532Z,13.30
2022-09-23T23:51:15.622Z,13.40
2022-09-23T23:58:07.951Z,13.30
2022-09-23T23:59:33.893Z,13.40
